createdAt,value
2023-01-05T00:00:35.409Z,99587.41
2023-01-05T00:04:40.004Z,99614.34
2023-01-05T00:08:46.400Z,99610.41
2023-01-05T00:13:06.883Z,99620.88
2023-01-05T00:17:31.586Z,99608.81
2023-01-05T00:21:55.487Z,99591.19
2023-01-05T00:25:58.484Z,99600.16
2023-01-05T00:30:02.638Z,99576.91
2023-01-05T00:34:07.611Z,99604.41
2023-01-05T00:38:11.404Z,99594.41
2023-01-05T00:42:14.355Z,99590.63
2023-01-05T00:46:17.758Z,99585.25
2023-01-05T00:50:24.698Z,99601.69
2023-01-05T00:54:28.471Z,99582.50
2023-01-05T00:58:31.337Z,99592.88
2023-01-05T01:02:34.855Z,99595.59
2023-01-05T01:06:39.085Z,99592.72
2023-01-05T01:10:42.222Z,99590.47
2023-01-05T01:14:48.992Z,99574.19
2023-01-05T01:18:53.740Z,99582.22
2023-01-05T01:23:00.503Z,99579.47
2023-01-05T01:27:04.084Z,99584.50
2023-01-05T01:31:08.687Z,99554.13
2023-01-05T01:35:12.246Z,99607.28
2023-01-05T01:39:17.710Z,99623.59
2023-01-05T01:43:40.131Z,99636.41
2023-01-05T01:47:46.274Z,99641.03
2023-01-05T01:51:50.657Z,99638.50
2023-01-05T01:55:56.336Z,99645.78
2023-01-05T02:00:02.177Z,99652.81
2023-01-05T02:04:06.680Z,99662.38
2023-01-05T02:08:26.044Z,99653.28
2023-01-05T02:12:39.640Z,99672.28
2023-01-05T02:16:50.469Z,99679.97
2023-01-05T02:21:17.510Z,99685.06
2023-01-05T02:25:48.134Z,99689.78
2023-01-05T02:30:42.824Z,99689.09
2023-01-05T02:34:54.590Z,99699.00
2023-01-05T02:39:02.601Z,99701.06
2023-01-05T02:43:07.099Z,99687.63
2023-01-05T02:47:37.707Z,99694.41
2023-01-05T02:51:46.660Z,99697.88
2023-01-05T02:55:53.325Z,99671.09
2023-01-05T02:59:57.335Z,99701.63
2023-01-05T03:04:05.171Z,99703.25
2023-01-05T03:08:32.100Z,99707.25
2023-01-05T03:12:54.545Z,99706.47
2023-01-05T03:16:58.687Z,99715.75
2023-01-05T03:21:03.361Z,99710.31
2023-01-05T03:25:27.920Z,99716.63
2023-01-05T03:29:51.297Z,99722.81
2023-01-05T03:34:16.445Z,99718.38
2023-01-05T03:38:25.066Z,99705.88
2023-01-05T03:42:39.052Z,99670.41
2023-01-05T03:46:43.281Z,99705.91
2023-01-05T03:50:46.834Z,99711.91
2023-01-05T03:54:49.958Z,99712.81
2023-01-05T03:58:54.895Z,99714.28
2023-01-05T04:02:58.556Z,99718.19
2023-01-05T04:07:02.386Z,99714.72
2023-01-05T04:11:13.384Z,99711.19
2023-01-05T04:15:18.918Z,99715.66
2023-01-05T04:19:22.495Z,99720.91
2023-01-05T04:23:25.975Z,99718.53
2023-01-05T04:27:29.486Z,99715.66
2023-01-05T04:31:34.417Z,99679.69
2023-01-05T04:35:37.825Z,99722.47
2023-01-05T04:39:41.122Z,99723.56
2023-01-05T04:43:44.401Z,99719.94
2023-01-05T04:47:48.544Z,99720.41
2023-01-05T04:51:51.439Z,99698.44
2023-01-05T04:55:54.593Z,99733.03
2023-01-05T04:59:57.738Z,99708.31
2023-01-05T05:04:02.628Z,99720.34
2023-01-05T05:08:07.476Z,99739.91
2023-01-05T05:12:13.327Z,99742.97
2023-01-05T05:16:16.421Z,99734.50
2023-01-05T05:20:24.447Z,99734.66
2023-01-05T05:24:30.898Z,99747.75
2023-01-05T05:28:38.234Z,99754.56
2023-01-05T05:32:44.472Z,99747.53
2023-01-05T05:36:50.921Z,99758.88
2023-01-05T05:40:54.384Z,99760.69
2023-01-05T05:45:03.503Z,99753.84
2023-01-05T05:49:13.196Z,99776.16
2023-01-05T05:53:17.978Z,99776.19
2023-01-05T05:57:21.275Z,99769.88
2023-01-05T06:01:24.919Z,99779.22
2023-01-05T06:05:28.128Z,99737.16
2023-01-05T06:09:32.672Z,99786.75
2023-01-05T06:13:36.244Z,99784.13
2023-01-05T06:17:39.842Z,99786.41
2023-01-05T06:21:43.716Z,99801.63
2023-01-05T06:25:49.545Z,99796.34
2023-01-05T06:29:52.758Z,99801.31
2023-01-05T06:33:56.176Z,99793.03
2023-01-05T06:37:59.097Z,99765.00
2023-01-05T06:42:05.798Z,99810.47
2023-01-05T06:46:09.053Z,99800.81
2023-01-05T06:50:12.273Z,99816.88
2023-01-05T06:54:15.479Z,99765.94
2023-01-05T06:58:19.884Z,99811.91
2023-01-05T07:02:22.949Z,99828.97
2023-01-05T07:06:26.187Z,99827.59
2023-01-05T07:10:29.633Z,99828.69
2023-01-05T07:14:34.146Z,99826.56
2023-01-05T07:18:37.468Z,99840.19
2023-01-05T07:22:40.970Z,99849.34
2023-01-05T07:26:43.836Z,99844.75
2023-01-05T07:30:53.435Z,99839.09
2023-01-05T07:34:57.803Z,99840.25
2023-01-05T07:39:01.043Z,99836.09
2023-01-05T07:43:04.649Z,99851.19
2023-01-05T07:47:09.563Z,99853.00
2023-01-05T07:51:13.440Z,99853.97
2023-01-05T07:55:16.385Z,99861.91
2023-01-05T07:59:22.440Z,99854.19
2023-01-05T08:03:27.200Z,99873.69
2023-01-05T08:07:30.057Z,99876.91
2023-01-05T08:11:33.562Z,99878.06
2023-01-05T08:15:37.105Z,99885.22
2023-01-05T08:19:42.543Z,99870.75
2023-01-05T08:23:46.229Z,99897.13
2023-01-05T08:27:49.277Z,99885.66
2023-01-05T08:31:52.286Z,99890.50
2023-01-05T08:35:56.655Z,99902.84
2023-01-05T08:40:00.150Z,99902.72
2023-01-05T08:44:04.807Z,99901.81
2023-01-05T08:48:09.425Z,99905.53
2023-01-05T08:52:15.734Z,99904.38
2023-01-05T08:56:19.328Z,99914.78
2023-01-05T09:00:22.982Z,99913.41
2023-01-05T09:04:27.649Z,99916.25
2023-01-05T09:08:32.516Z,99907.22
2023-01-05T09:12:36.203Z,99891.78
2023-01-05T09:21:02.260Z,99934.28
2023-01-05T09:25:07.329Z,99927.75
2023-01-05T09:29:12.405Z,99929.16
2023-01-05T09:33:15.329Z,99931.72
2023-01-05T09:37:18.266Z,99934.28
2023-01-05T09:41:26.084Z,99965.59
2023-01-05T09:45:29.336Z,99957.28
2023-01-05T09:49:32.978Z,99953.06
2023-01-05T09:53:36.140Z,99958.56
2023-01-05T09:57:41.671Z,99952.31
2023-01-05T10:01:55.405Z,99967.41
2023-01-05T10:06:01.221Z,99961.41
2023-01-05T10:10:15.083Z,99965.59
2023-01-05T10:14:41.586Z,99961.34
2023-01-05T10:18:46.537Z,99885.94
2023-01-05T10:22:58.791Z,99960.06
2023-01-05T10:27:28.690Z,99957.13
2023-01-05T10:31:46.729Z,99966.28
2023-01-05T10:36:02.353Z,99959.16
2023-01-05T10:40:32.480Z,99960.69
2023-01-05T10:45:07.676Z,99969.19
2023-01-05T10:49:24.813Z,99970.53
2023-01-05T10:53:33.297Z,99964.69
2023-01-05T10:57:42.053Z,99953.53
2023-01-05T11:01:53.290Z,99954.00
2023-01-05T11:06:07.754Z,99949.88
2023-01-05T11:10:30.344Z,99950.75
2023-01-05T11:14:42.609Z,99945.00
2023-01-05T11:19:01.173Z,99934.50
2023-01-05T11:23:37.018Z,99940.72
2023-01-05T11:27:42.632Z,99939.00
2023-01-05T11:31:56.071Z,99938.66
2023-01-05T11:36:02.444Z,99943.03
2023-01-05T11:40:30.690Z,99944.50
2023-01-05T11:44:38.480Z,99958.06
2023-01-05T11:48:54.273Z,99951.66
2023-01-05T11:53:01.083Z,99948.75
2023-01-05T11:57:19.443Z,99949.00
2023-01-05T12:01:49.543Z,99936.25
2023-01-05T12:05:58.762Z,99933.72
2023-01-05T12:10:23.655Z,99937.16
2023-01-05T12:14:49.958Z,99948.56
2023-01-05T12:19:15.142Z,99952.84
2023-01-05T12:23:57.577Z,99943.84
2023-01-05T12:29:50.558Z,99953.31
2023-01-05T12:34:09.882Z,99957.69
2023-01-05T12:38:18.182Z,99957.44
2023-01-05T12:42:42.913Z,99957.81
2023-01-05T12:46:56.018Z,99962.28
2023-01-05T12:51:10.243Z,99956.19
2023-01-05T12:55:20.348Z,99949.88
2023-01-05T12:59:28.759Z,99949.03
2023-01-05T13:04:03.163Z,99948.03
2023-01-05T13:08:34.582Z,99945.38
2023-01-05T13:12:44.017Z,99958.84
2023-01-05T13:16:58.720Z,99950.22
2023-01-05T13:21:14.573Z,99959.50
2023-01-05T13:25:34.952Z,99955.94
2023-01-05T13:29:49.229Z,99956.16
2023-01-05T13:34:36.267Z,99955.81
2023-01-05T13:39:05.361Z,99959.97
2023-01-05T13:43:44.450Z,99957.66
2023-01-05T13:48:00.974Z,99954.88
2023-01-05T13:56:42.461Z,99951.78
2023-01-05T14:00:53.124Z,99949.06
2023-01-05T14:04:57.962Z,99948.75
2023-01-05T14:09:07.150Z,99952.72
2023-01-05T14:13:57.738Z,99962.56
2023-01-05T14:18:08.557Z,99963.84
2023-01-05T14:22:37.812Z,99961.53
2023-01-05T14:27:22.331Z,99966.03
2023-01-05T14:31:45.110Z,99959.94
2023-01-05T14:35:51.241Z,99956.03
2023-01-05T14:40:04.095Z,99963.38
2023-01-05T14:44:35.013Z,99962.72
2023-01-05T14:48:43.993Z,99963.44
2023-01-05T14:53:12.200Z,99964.56
2023-01-05T14:57:41.939Z,99969.94
2023-01-05T15:02:08.122Z,99977.06
2023-01-05T15:06:18.150Z,99967.13
2023-01-05T15:10:45.772Z,99974.94
2023-01-05T15:15:30.812Z,99973.59
2023-01-05T15:20:09.383Z,99972.41
2023-01-05T15:24:56.875Z,99976.78
2023-01-05T15:29:20.272Z,99979.03
2023-01-05T15:33:35.453Z,99966.06
2023-01-05T15:37:44.262Z,99919.94
2023-01-05T15:41:48.300Z,99978.59
2023-01-05T15:45:56.831Z,99983.69
2023-01-05T15:50:03.939Z,99980.16
2023-01-05T15:54:23.360Z,99986.72
2023-01-05T15:58:31.289Z,99940.75
2023-01-05T16:02:36.334Z,99983.50
2023-01-05T16:06:41.066Z,99961.34
2023-01-05T16:10:51.938Z,99975.44
2023-01-05T16:15:00.932Z,99977.47
2023-01-05T16:19:13.085Z,99972.19
2023-01-05T16:23:20.135Z,99971.91
2023-01-05T16:27:25.258Z,99967.00
2023-01-05T16:31:34.811Z,99953.13
2023-01-05T16:35:51.686Z,99962.66
2023-01-05T16:40:08.562Z,99957.63
2023-01-05T16:44:15.566Z,99957.53
2023-01-05T16:48:53.545Z,99956.66
2023-01-05T16:53:13.011Z,99950.19
2023-01-05T16:57:33.959Z,99941.47
2023-01-05T17:01:48.202Z,99950.72
2023-01-05T17:05:53.603Z,99948.53
2023-01-05T17:14:25.864Z,99954.84
2023-01-05T17:18:31.399Z,99943.53
2023-01-05T17:22:35.872Z,99926.63
2023-01-05T17:26:41.937Z,99943.25
2023-01-05T17:30:47.853Z,99938.69
2023-01-05T17:34:53.099Z,99948.97
2023-01-05T17:38:56.455Z,99938.31
2023-01-05T17:43:09.780Z,99944.63
2023-01-05T17:47:14.285Z,99940.91
2023-01-05T17:51:21.539Z,99940.91
2023-01-05T17:55:25.578Z,99949.69
2023-01-05T17:59:29.874Z,99885.06
2023-01-05T18:03:33.845Z,99937.97
2023-01-05T18:07:39.660Z,99938.69
2023-01-05T18:11:46.456Z,99939.44
2023-01-05T18:15:53.622Z,99934.44
2023-01-05T18:19:56.993Z,99938.84
2023-01-05T18:24:01.847Z,99936.50
2023-01-05T18:28:08.950Z,99939.81
2023-01-05T18:32:13.207Z,99931.91
2023-01-05T18:36:19.842Z,99924.75
2023-01-05T18:40:24.547Z,99921.38
2023-01-05T18:44:31.330Z,99923.50
2023-01-05T18:48:34.931Z,99920.53
2023-01-05T18:52:38.577Z,99894.53
2023-01-05T18:56:43.554Z,99914.00
2023-01-05T19:00:47.776Z,99922.94
2023-01-05T19:04:51.659Z,99921.59
2023-01-05T19:08:55.208Z,99924.03
2023-01-05T19:13:01.271Z,99911.63
2023-01-05T19:17:09.856Z,99924.97
2023-01-05T19:21:13.673Z,99912.66
2023-01-05T19:25:22.923Z,99923.69
2023-01-05T19:29:30.035Z,99924.53
2023-01-05T19:33:33.827Z,99920.41
2023-01-05T19:37:42.689Z,99902.69
2023-01-05T19:41:50.527Z,99885.34
2023-01-05T19:45:59.250Z,99901.22
2023-01-05T19:50:02.297Z,99894.91
2023-01-05T19:54:12.659Z,99894.44
2023-01-05T19:58:15.468Z,99890.53
2023-01-05T20:02:26.930Z,99879.41
2023-01-05T20:06:38.281Z,99867.31
2023-01-05T20:10:42.284Z,99880.09
2023-01-05T20:14:46.326Z,99879.16
2023-01-05T20:18:50.865Z,99879.06
2023-01-05T20:22:54.323Z,99878.16
2023-01-05T20:27:02.533Z,99878.72
2023-01-05T20:31:07.067Z,99868.28
2023-01-05T20:35:14.469Z,99839.19
2023-01-05T20:39:20.217Z,99880.13
2023-01-05T20:43:24.613Z,99880.34
2023-01-05T20:47:29.926Z,99878.28
2023-01-05T20:51:34.593Z,99878.41
2023-01-05T20:55:40.432Z,99876.34
2023-01-05T20:59:44.881Z,99877.94
2023-01-05T21:03:50.483Z,99867.56
2023-01-05T21:07:59.837Z,99859.56
2023-01-05T21:12:03.436Z,99859.66
2023-01-05T21:16:08.022Z,99869.78
2023-01-05T21:20:11.202Z,99851.63
2023-01-05T21:24:22.723Z,99861.63
2023-01-05T21:28:27.690Z,99856.53
2023-01-05T21:32:34.401Z,99854.34
2023-01-05T21:36:38.813Z,99853.91
2023-01-05T21:40:47.468Z,99854.03
2023-01-05T21:44:50.888Z,99857.38
2023-01-05T21:48:53.820Z,99860.25
2023-01-05T21:53:14.511Z,99847.47
2023-01-05T21:57:21.512Z,99846.34
2023-01-05T22:01:31.929Z,99848.53
2023-01-05T22:05:40.682Z,99836.91
2023-01-05T22:09:44.630Z,99831.03
2023-01-05T22:13:53.881Z,99836.44
2023-01-05T22:17:57.127Z,99824.03
2023-01-05T22:22:16.610Z,99830.34
2023-01-05T22:26:23.739Z,99808.16
2023-01-05T22:30:28.361Z,99823.22
2023-01-05T22:34:33.003Z,99829.91
2023-01-05T22:38:38.638Z,99825.66
2023-01-05T22:42:48.219Z,99822.41
2023-01-05T22:46:52.909Z,99817.72
2023-01-05T22:50:57.218Z,99831.16
2023-01-05T22:55:04.512Z,99831.75
2023-01-05T22:59:08.722Z,99830.81
2023-01-05T23:03:14.099Z,99829.22
2023-01-05T23:07:27.265Z,99829.00
2023-01-05T23:11:34.709Z,99825.41
2023-01-05T23:15:44.065Z,99838.88
2023-01-05T23:19:49.439Z,99826.91
2023-01-05T23:23:53.237Z,99816.53
2023-01-05T23:28:05.178Z,99820.22
2023-01-05T23:32:14.104Z,99813.91
2023-01-05T23:36:29.341Z,99792.06
2023-01-05T23:40:33.045Z,99810.44
2023-01-05T23:44:36.403Z,99809.53
2023-01-05T23:48:41.194Z,99804.84
2023-01-05T23:52:50.078Z,99805.63
2023-01-05T23:56:53.752Z,99797.69
